Time;durP1;ratioP1;P1;durP2;ratioP2;P2;SDS_P1;SDS_P2;PMS_P1;PMS_P2;Temp;Humidity;BMP_temperature;BMP_pressure;BME280_temperature;BME280_humidity;BME280_pressure;Samples;Min_cycle;Max_cycle;Signal;HPM_P1;HPM_P2
2023/07/03 00:00:32;;;;;;;27.35;5.38;;;17.70;99.90;;;;;;5071726;28;20051;-68
2023/07/03 00:02:58;;;;;;;33.33;6.43;;;17.70;99.90;;;;;;5071735;28;20036;-67
2023/07/03 00:05:24;;;;;;;28.42;5.65;;;17.70;99.90;;;;;;5071775;28;20032;-66
2023/07/03 00:07:51;;;;;;;32.00;5.82;;;17.70;99.90;;;;;;5071934;28;20064;-67
2023/07/03 00:10:21;;;;;;;33.00;5.57;;;17.70;99.90;;;;;;5071797;28;20040;-67
2023/07/03 00:12:47;;;;;;;28.80;5.80;;;17.70;99.90;;;;;;5071432;28;20021;-67
2023/07/03 00:15:13;;;;;;;26.25;5.30;;;17.70;99.90;;;;;;5071784;28;20032;-66
2023/07/03 00:17:39;;;;;;;34.70;5.65;;;17.70;99.90;;;;;;5070436;28;20036;-67
2023/07/03 00:20:06;;;;;;;24.83;5.85;;;17.70;99.90;;;;;;5071869;28;20086;-68
2023/07/03 00:22:32;;;;;;;29.35;6.35;;;17.70;99.90;;;;;;5071014;28;20060;-67
2023/07/03 00:24:58;;;;;;;29.50;5.78;;;17.70;99.90;;;;;;5068425;28;20079;-68
2023/07/03 00:27:23;;;;;;;27.65;5.78;;;17.70;99.90;;;;;;5069718;28;20020;-67
2023/07/03 00:29:49;;;;;;;31.23;6.05;;;17.80;99.90;;;;;;5070849;28;20020;-67
2023/07/03 00:32:14;;;;;;;35.53;5.78;;;17.80;99.90;;;;;;5074425;28;20021;-67
2023/07/03 00:34:40;;;;;;;23.33;5.13;;;17.80;99.90;;;;;;5074415;28;20052;-66
2023/07/03 00:37:06;;;;;;;28.35;5.00;;;17.80;99.90;;;;;;5074576;28;20104;-66
2023/07/03 00:39:32;;;;;;;30.95;5.45;;;17.80;99.90;;;;;;5074864;28;20056;-68
2023/07/03 00:41:58;;;;;;;25.45;5.05;;;17.80;99.90;;;;;;5075029;28;20024;-67
2023/07/03 00:44:24;;;;;;;21.48;4.35;;;17.80;99.90;;;;;;5074570;28;20079;-67
2023/07/03 00:46:50;;;;;;;24.77;4.88;;;17.70;99.90;;;;;;5074606;28;20472;-67
2023/07/03 00:49:18;;;;;;;22.05;4.45;;;17.70;99.90;;;;;;5074625;28;20024;-65
2023/07/03 00:51:57;;;;;;;22.52;4.75;;;17.80;99.90;;;;;;5074620;28;20075;-67
2023/07/03 00:54:23;;;;;;;15.32;4.13;;;17.70;99.90;;;;;;5072735;28;20017;-67
2023/07/03 00:56:49;;;;;;;9.43;2.65;;;17.70;99.90;;;;;;5074437;28;20396;-67
2023/07/03 00:59:15;;;;;;;10.45;2.28;;;17.70;99.90;;;;;;5074107;28;20024;-68
2023/07/03 01:01:55;;;;;;;11.13;2.15;;;17.70;99.90;;;;;;5074399;28;20479;-67
2023/07/03 01:04:26;;;;;;;9.77;2.03;;;17.70;99.90;;;;;;5071741;28;20046;-67
2023/07/03 01:07:06;;;;;;;9.88;2.17;;;17.70;99.90;;;;;;5074552;28;20115;-67
2023/07/03 01:09:47;;;;;;;8.30;2.15;;;17.70;99.90;;;;;;5073587;28;20040;-66
2023/07/03 01:12:15;;;;;;;13.15;2.33;;;17.70;99.90;;;;;;5073476;28;20039;-66
2023/07/03 01:14:43;;;;;;;13.15;2.20;;;17.70;99.90;;;;;;5074294;28;20063;-67
2023/07/03 01:17:10;;;;;;;11.35;2.25;;;17.70;99.90;;;;;;5073871;28;20032;-67
2023/07/03 01:19:39;;;;;;;9.20;2.25;;;17.70;99.90;;;;;;5074094;28;20024;-68
2023/07/03 01:22:12;;;;;;;10.10;2.03;;;17.70;99.90;;;;;;5074203;28;20069;-67
2023/07/03 01:24:43;;;;;;;13.05;2.33;;;17.70;99.90;;;;;;5073998;28;20024;-67
2023/07/03 01:27:11;;;;;;;11.43;2.03;;;17.70;99.90;;;;;;5073846;28;20045;-67
2023/07/03 01:29:39;;;;;;;7.82;1.52;;;17.60;99.90;;;;;;5073442;28;20043;-67
2023/07/03 01:32:09;;;;;;;9.02;1.98;;;17.60;99.90;;;;;;5071528;28;20029;-66
2023/07/03 01:34:37;;;;;;;6.15;1.63;;;17.60;99.90;;;;;;5073356;28;20377;-66
2023/07/03 01:37:04;;;;;;;6.60;1.65;;;17.60;99.70;;;;;;5070726;28;20026;-67
2023/07/03 01:39:30;;;;;;;9.32;1.70;;;17.60;98.50;;;;;;5073763;28;20048;-66
2023/07/03 01:41:57;;;;;;;9.65;1.73;;;17.60;98.50;;;;;;5073365;28;20078;-66
2023/07/03 01:44:23;;;;;;;9.77;2.22;;;17.60;98.80;;;;;;5070807;28;20102;-66
2023/07/03 01:46:49;;;;;;;11.18;2.00;;;17.50;99.10;;;;;;5073273;28;20543;-68
2023/07/03 01:49:15;;;;;;;7.35;1.70;;;17.50;99.00;;;;;;5073524;28;20081;-66
2023/07/03 01:51:56;;;;;;;14.57;1.95;;;17.50;99.10;;;;;;5073128;28;20349;-66
2023/07/03 01:54:29;;;;;;;11.50;2.10;;;17.50;99.40;;;;;;5073623;28;20021;-67
2023/07/03 01:56:57;;;;;;;10.48;2.50;;;17.50;99.80;;;;;;5073789;28;20112;-67
2023/07/03 01:59:25;;;;;;;16.02;2.58;;;17.40;99.80;;;;;;5070462;28;20024;-67
2023/07/03 02:02:04;;;;;;;12.38;1.90;;;17.50;99.90;;;;;;5073282;28;20021;-67
2023/07/03 02:04:57;;;;;;;12.98;2.10;;;17.40;99.70;;;;;;5071536;28;20036;-67
2023/07/03 02:07:27;;;;;;;10.10;1.75;;;17.40;99.60;;;;;;5070506;28;20025;-67
2023/07/03 02:09:52;;;;;;;10.43;1.80;;;17.40;99.30;;;;;;5072874;28;20020;-66
2023/07/03 02:12:18;;;;;;;11.73;1.92;;;17.30;99.20;;;;;;5072756;28;20035;-66
2023/07/03 02:14:43;;;;;;;12.55;1.77;;;17.40;99.40;;;;;;5073138;28;20092;-67
2023/07/03 02:17:09;;;;;;;9.88;2.00;;;17.30;99.40;;;;;;5072637;28;20032;-68
2023/07/03 02:19:35;;;;;;;7.20;2.38;;;17.30;99.50;;;;;;5072576;28;20039;-67
2023/07/03 02:22:01;;;;;;;10.57;1.80;;;17.30;99.70;;;;;;5072762;28;20048;-66
2023/07/03 02:24:27;;;;;;;11.75;1.98;;;17.30;99.60;;;;;;5072446;28;20025;-67
2023/07/03 02:26:53;;;;;;;9.07;1.70;;;17.30;99.80;;;;;;5072772;28;20032;-66
2023/07/03 02:29:19;;;;;;;10.20;2.00;;;17.30;99.90;;;;;;5072521;28;20082;-66
2023/07/03 02:31:45;;;;;;;7.32;1.75;;;17.30;99.90;;;;;;5072643;28;20017;-66
2023/07/03 02:34:10;;;;;;;12.85;1.95;;;17.30;99.90;;;;;;5072668;28;20028;-67
2023/07/03 02:36:37;;;;;;;14.68;2.50;;;17.20;99.90;;;;;;5073044;28;20436;-66
2023/07/03 02:39:05;;;;;;;12.48;2.03;;;17.30;99.90;;;;;;5071959;28;20086;-67
2023/07/03 02:41:31;;;;;;;8.40;1.55;;;17.30;99.90;;;;;;5073644;28;20392;-66
2023/07/03 02:43:57;;;;;;;8.60;2.08;;;17.20;99.90;;;;;;5079005;28;20028;-67
2023/07/03 02:46:23;;;;;;;11.68;2.00;;;17.20;99.90;;;;;;5085423;28;20032;-67
2023/07/03 02:48:49;;;;;;;6.32;1.80;;;17.20;99.90;;;;;;5083774;28;20089;-65
2023/07/03 02:51:14;;;;;;;8.48;1.77;;;17.20;99.90;;;;;;5078233;28;20073;-68
2023/07/03 02:53:41;;;;;;;8.85;1.85;;;17.20;99.90;;;;;;5073351;28;20461;-66
2023/07/03 02:56:08;;;;;;;11.95;2.53;;;17.20;99.90;;;;;;5086965;28;20099;-67
2023/07/03 02:58:34;;;;;;;12.75;2.22;;;17.10;99.90;;;;;;5081276;28;20031;-66
2023/07/03 03:01:01;;;;;;;10.77;1.73;;;17.10;99.90;;;;;;5092866;28;20111;-67
2023/07/03 03:03:29;;;;;;;8.38;1.70;;;17.10;99.90;;;;;;5076771;28;20082;-67
2023/07/03 03:05:55;;;;;;;13.10;2.08;;;17.10;99.90;;;;;;5089185;28;20329;-67
2023/07/03 03:08:22;;;;;;;7.80;1.73;;;17.00;99.90;;;;;;5078973;28;20039;-67
2023/07/03 03:10:48;;;;;;;11.68;2.35;;;17.00;99.90;;;;;;5081918;28;20021;-67
2023/07/03 03:13:14;;;;;;;11.57;2.40;;;17.00;99.90;;;;;;5086659;28;20024;-67
2023/07/03 03:15:40;;;;;;;8.02;2.00;;;16.90;99.90;;;;;;5076038;28;20039;-67
2023/07/03 03:18:06;;;;;;;15.20;2.65;;;16.90;99.90;;;;;;5087725;28;20024;-67
2023/07/03 03:20:31;;;;;;;10.13;1.70;;;16.80;99.90;;;;;;5080516;28;20039;-67
2023/07/03 03:22:58;;;;;;;8.93;1.90;;;16.80;99.90;;;;;;5079922;28;20479;-67
2023/07/03 03:25:23;;;;;;;13.00;2.50;;;16.80;99.90;;;;;;5087945;28;20487;-67
2023/07/03 03:27:49;;;;;;;11.38;2.60;;;16.70;99.90;;;;;;5071885;28;20021;-67
2023/07/03 03:30:14;;;;;;;16.33;2.58;;;16.70;99.90;;;;;;5072361;28;20024;-67
2023/07/03 03:32:40;;;;;;;8.55;1.80;;;16.70;99.90;;;;;;5072506;28;20523;-67
2023/07/03 03:35:06;;;;;;;12.20;2.10;;;16.60;99.90;;;;;;5071771;28;20035;-67
2023/07/03 03:37:32;;;;;;;14.48;2.28;;;16.60;99.90;;;;;;5071175;28;20055;-67
2023/07/03 03:39:57;;;;;;;11.43;2.33;;;16.60;99.90;;;;;;5071881;28;20025;-67
2023/07/03 03:42:23;;;;;;;9.43;2.28;;;16.50;99.90;;;;;;5070771;28;20030;-67
2023/07/03 03:44:48;;;;;;;9.77;1.88;;;16.50;99.90;;;;;;5071991;28;20415;-66
2023/07/03 03:47:14;;;;;;;13.35;2.10;;;16.40;99.90;;;;;;5072022;28;20452;-66
2023/07/03 03:49:39;;;;;;;16.92;2.53;;;16.40;99.90;;;;;;5072289;28;20483;-68
2023/07/03 03:52:06;;;;;;;12.82;2.47;;;16.40;99.90;;;;;;5071981;28;20055;-67
2023/07/03 03:54:31;;;;;;;10.13;2.30;;;16.40;99.90;;;;;;5071963;28;20050;-67
2023/07/03 03:56:57;;;;;;;10.50;2.08;;;16.30;99.90;;;;;;5071992;28;20025;-66
2023/07/03 03:59:23;;;;;;;17.23;2.67;;;16.30;99.90;;;;;;5072033;28;20361;-67
2023/07/03 04:01:49;;;;;;;12.63;2.40;;;16.20;99.90;;;;;;5071556;28;20064;-67
2023/07/03 04:04:15;;;;;;;8.45;2.20;;;16.20;99.90;;;;;;5072325;28;20029;-68
2023/07/03 04:06:41;;;;;;;16.35;2.72;;;16.20;99.90;;;;;;5074477;28;20082;-68
2023/07/03 04:09:07;;;;;;;14.45;2.63;;;16.20;99.90;;;;;;5069938;28;20431;-66
2023/07/03 04:11:33;;;;;;;15.68;3.00;;;16.10;99.90;;;;;;5063715;28;20029;-67
2023/07/03 04:13:59;;;;;;;17.65;2.97;;;16.10;99.90;;;;;;5056493;28;20032;-67
2023/07/03 04:16:27;;;;;;;11.38;2.30;;;16.20;99.90;;;;;;5056225;28;20350;-66
2023/07/03 04:18:52;;;;;;;10.55;2.42;;;16.20;99.90;;;;;;5055759;28;20093;-68
2023/07/03 04:21:18;;;;;;;14.35;2.20;;;16.20;99.90;;;;;;5056263;28;20033;-67
2023/07/03 04:23:43;;;;;;;11.80;3.10;;;16.20;99.90;;;;;;5056190;28;20385;-67
2023/07/03 04:26:09;;;;;;;15.35;2.67;;;16.30;99.90;;;;;;5055664;28;20049;-67
2023/07/03 04:28:35;;;;;;;12.82;2.20;;;16.30;99.90;;;;;;5057076;28;20040;-67
2023/07/03 04:31:02;;;;;;;17.92;2.85;;;16.40;99.90;;;;;;5063564;28;20036;-67
2023/07/03 04:33:28;;;;;;;14.60;2.25;;;16.40;99.90;;;;;;5055813;28;20106;-66
2023/07/03 04:35:54;;;;;;;13.05;2.28;;;16.40;99.90;;;;;;5055778;28;20473;-67
2023/07/03 04:38:23;;;;;;;16.30;2.63;;;16.40;99.90;;;;;;5055080;28;20060;-67
2023/07/03 04:40:53;;;;;;;8.65;2.10;;;16.40;99.90;;;;;;5055735;28;20029;-66
2023/07/03 04:43:20;;;;;;;13.57;2.60;;;16.50;99.90;;;;;;5055630;28;20380;-66
2023/07/03 04:45:47;;;;;;;17.17;2.38;;;16.50;99.90;;;;;;5055350;28;20048;-67
2023/07/03 04:48:14;;;;;;;13.13;2.38;;;16.50;99.90;;;;;;5055603;28;20029;-66
2023/07/03 04:50:40;;;;;;;10.20;2.08;;;16.50;99.90;;;;;;5055377;28;20033;-67
2023/07/03 04:53:05;;;;;;;5.55;1.40;;;16.50;99.90;;;;;;5053975;28;20025;-66
2023/07/03 04:55:32;;;;;;;10.15;1.73;;;16.60;99.90;;;;;;5055264;28;20117;-67
2023/07/03 04:57:59;;;;;;;10.55;1.90;;;16.60;99.90;;;;;;5055389;28;20111;-67
2023/07/03 05:00:27;;;;;;;10.25;1.80;;;16.60;99.90;;;;;;5055263;28;20021;-67
2023/07/03 05:02:54;;;;;;;15.18;2.33;;;16.60;99.90;;;;;;5055512;28;20024;-67
2023/07/03 05:05:20;;;;;;;11.55;2.53;;;16.70;99.90;;;;;;5054922;28;20052;-67
2023/07/03 05:07:46;;;;;;;15.18;2.40;;;16.70;99.90;;;;;;5055427;28;20025;-67
2023/07/03 05:10:15;;;;;;;7.28;2.10;;;16.70;99.90;;;;;;5055108;28;20040;-67
2023/07/03 05:12:40;;;;;;;11.05;2.30;;;16.80;99.90;;;;;;5055382;28;20040;-67
2023/07/03 05:15:08;;;;;;;15.60;3.05;;;16.80;99.90;;;;;;5054978;28;20415;-68
2023/07/03 05:17:37;;;;;;;16.38;2.50;;;16.90;99.90;;;;;;5053583;28;20437;-67
2023/07/03 05:20:06;;;;;;;10.30;2.30;;;16.90;99.90;;;;;;5055170;28;20029;-66
2023/07/03 05:22:31;;;;;;;9.77;2.15;;;17.00;99.90;;;;;;5054926;28;20401;-67
2023/07/03 05:24:57;;;;;;;14.00;2.58;;;17.10;99.90;;;;;;5054950;28;20063;-66
2023/07/03 05:27:23;;;;;;;13.20;2.42;;;17.20;99.90;;;;;;5054866;28;20090;-66
2023/07/03 05:29:49;;;;;;;14.45;2.60;;;17.40;99.90;;;;;;5054678;28;20461;-67
2023/07/03 05:32:15;;;;;;;12.50;2.47;;;17.70;99.90;;;;;;5054788;28;20028;-67
2023/07/03 05:34:40;;;;;;;12.85;2.92;;;18.10;99.90;;;;;;5054767;28;20033;-67
2023/07/03 05:37:06;;;;;;;9.43;1.90;;;18.50;99.90;;;;;;5054794;28;20025;-67
2023/07/03 05:39:32;;;;;;;12.73;2.13;;;18.70;99.90;;;;;;5054789;28;20041;-67
2023/07/03 05:41:58;;;;;;;11.43;1.95;;;19.00;99.90;;;;;;5054790;28;20052;-67
2023/07/03 05:44:23;;;;;;;9.23;1.95;;;19.00;99.90;;;;;;5062052;28;20356;-67
2023/07/03 05:46:50;;;;;;;12.60;2.10;;;18.90;99.90;;;;;;5057866;28;20468;-66
2023/07/03 05:49:15;;;;;;;11.00;2.40;;;18.80;99.90;;;;;;5054362;28;20025;-67
2023/07/03 05:51:41;;;;;;;12.82;2.00;;;18.70;99.90;;;;;;5054485;28;20091;-66
2023/07/03 05:54:06;;;;;;;11.98;2.42;;;18.70;99.90;;;;;;5065221;28;20024;-67
2023/07/03 05:56:32;;;;;;;12.77;2.17;;;18.80;99.90;;;;;;5054703;28;20037;-67
2023/07/03 05:58:57;;;;;;;14.40;2.53;;;18.90;99.90;;;;;;5053832;28;20028;-66
2023/07/03 06:01:23;;;;;;;12.40;2.08;;;19.10;99.90;;;;;;5054133;28;20068;-68
2023/07/03 06:03:49;;;;;;;12.25;2.03;;;19.30;99.90;;;;;;5053883;28;20523;-65
2023/07/03 06:06:15;;;;;;;11.30;2.58;;;19.80;99.90;;;;;;5053928;28;20045;-66
2023/07/03 06:08:41;;;;;;;7.93;1.60;;;20.90;99.20;;;;;;5054227;28;20056;-66
2023/07/03 06:11:07;;;;;;;11.20;3.17;;;21.80;97.60;;;;;;5053779;28;20063;-67
2023/07/03 06:13:32;;;;;;;13.27;2.33;;;22.40;96.90;;;;;;5053575;28;20033;-66
2023/07/03 06:15:58;;;;;;;13.85;2.42;;;23.00;95.70;;;;;;5065028;28;20526;-67
2023/07/03 06:18:23;;;;;;;7.63;1.85;;;23.50;94.50;;;;;;5067978;28;20457;-66
2023/07/03 06:20:49;;;;;;;12.23;2.00;;;23.50;94.00;;;;;;5073859;28;20028;-67
2023/07/03 06:23:15;;;;;;;9.55;1.90;;;23.60;93.80;;;;;;5073820;28;20064;-66
2023/07/03 06:25:41;;;;;;;7.88;1.90;;;23.50;93.60;;;;;;5073669;28;20040;-67
2023/07/03 06:28:07;;;;;;;11.05;2.05;;;23.50;93.70;;;;;;5073011;28;20021;-66
2023/07/03 06:30:32;;;;;;;9.02;1.67;;;23.50;93.50;;;;;;5073552;28;20035;-67
2023/07/03 06:32:58;;;;;;;6.10;1.48;;;23.90;93.10;;;;;;5073617;28;20555;-67
2023/07/03 06:35:24;;;;;;;7.25;1.77;;;24.30;92.60;;;;;;5073977;28;20430;-67
2023/07/03 06:37:52;;;;;;;8.35;1.90;;;24.90;92.20;;;;;;5072954;28;20477;-68
2023/07/03 06:40:19;;;;;;;9.98;1.85;;;25.30;91.40;;;;;;5073688;28;20025;-66
2023/07/03 06:42:44;;;;;;;4.63;1.20;;;25.70;91.20;;;;;;5071971;28;20028;-67
2023/07/03 06:45:11;;;;;;;6.95;1.50;;;26.00;90.40;;;;;;5073024;28;20032;-67
2023/07/03 06:47:37;;;;;;;9.25;1.77;;;26.10;90.00;;;;;;5073234;28;20115;-67
2023/07/03 06:50:02;;;;;;;7.75;1.65;;;26.40;90.10;;;;;;5073332;28;20429;-67
2023/07/03 06:52:28;;;;;;;4.47;1.13;;;26.80;89.70;;;;;;5073009;28;20039;-66
2023/07/03 06:54:55;;;;;;;13.32;1.95;;;26.90;86.70;;;;;;5073044;28;20045;-66
2023/07/03 06:57:21;;;;;;;6.00;1.77;;;26.70;86.60;;;;;;5072759;28;20050;-67
2023/07/03 06:59:50;;;;;;;10.02;1.80;;;26.80;86.20;;;;;;5073106;28;20028;-68
2023/07/03 07:02:15;;;;;;;6.40;1.65;;;26.70;86.50;;;;;;5073071;28;20464;-68
2023/07/03 07:04:42;;;;;;;10.68;1.48;;;26.80;86.90;;;;;;5072792;28;20101;-67
2023/07/03 07:07:08;;;;;;;9.15;2.08;;;26.90;86.60;;;;;;5071809;28;20033;-67
2023/07/03 07:09:33;;;;;;;6.03;1.20;;;26.90;86.70;;;;;;5071202;28;20109;-67
2023/07/03 07:11:59;;;;;;;8.85;1.48;;;27.30;86.10;;;;;;5072103;28;20403;-67
2023/07/03 07:14:24;;;;;;;6.18;1.80;;;27.50;84.60;;;;;;5071829;28;20111;-66
2023/07/03 07:16:50;;;;;;;6.60;1.35;;;27.80;84.40;;;;;;5072028;28;20040;-67
2023/07/03 07:19:16;;;;;;;5.25;1.60;;;28.00;83.70;;;;;;5072113;28;20033;-66
2023/07/03 07:21:41;;;;;;;10.30;1.67;;;28.30;82.30;;;;;;5072767;28;20028;-66
2023/07/03 07:24:22;;;;;;;5.63;1.80;;;28.20;82.20;;;;;;5073017;28;20039;-66
2023/07/03 07:26:50;;;;;;;5.07;1.17;;;27.20;83.20;;;;;;5072710;28;20084;-66
2023/07/03 07:29:16;;;;;;;6.43;1.60;;;26.40;83.70;;;;;;5072718;28;20104;-67
2023/07/03 07:31:42;;;;;;;8.70;1.38;;;25.80;84.50;;;;;;5072608;28;20056;-67
2023/07/03 07:34:09;;;;;;;8.63;1.90;;;25.40;85.60;;;;;;5072339;28;20504;-66
2023/07/03 07:36:36;;;;;;;8.13;1.60;;;25.40;86.50;;;;;;5072480;28;20060;-66
2023/07/03 07:39:03;;;;;;;7.63;1.52;;;25.50;86.10;;;;;;5072375;28;20040;-67
2023/07/03 07:41:29;;;;;;;10.27;1.60;;;25.60;86.30;;;;;;5071850;28;20061;-67
2023/07/03 07:43:55;;;;;;;10.98;1.73;;;25.80;85.50;;;;;;5072280;28;20029;-67
2023/07/03 07:46:25;;;;;;;4.68;1.40;;;25.90;85.50;;;;;;5072245;28;20044;-67
2023/07/03 07:48:50;;;;;;;6.72;1.60;;;26.40;84.80;;;;;;5071987;28;20086;-67
2023/07/03 07:51:16;;;;;;;6.50;1.30;;;26.20;84.70;;;;;;5072027;28;20032;-67
2023/07/03 07:53:42;;;;;;;9.63;1.48;;;26.00;84.50;;;;;;5071655;28;20031;-68
2023/07/03 07:56:09;;;;;;;10.15;2.00;;;25.90;85.30;;;;;;5072188;28;20032;-67
2023/07/03 07:58:35;;;;;;;6.22;1.50;;;25.40;86.60;;;;;;5072284;28;20032;-67
2023/07/03 08:01:00;;;;;;;9.30;1.85;;;25.00;87.00;;;;;;5072418;28;20048;-66
2023/07/03 08:03:27;;;;;;;6.82;1.27;;;24.80;87.20;;;;;;5072354;28;20078;-67
2023/07/03 08:05:57;;;;;;;9.15;1.42;;;24.50;88.40;;;;;;5072182;28;20028;-67
2023/07/03 08:08:23;;;;;;;6.07;1.50;;;24.40;88.60;;;;;;5071829;28;20021;-67
2023/07/03 08:10:53;;;;;;;7.90;1.40;;;24.30;88.10;;;;;;5072185;28;20024;-67
2023/07/03 08:13:19;;;;;;;5.32;1.35;;;24.20;88.60;;;;;;5071849;28;20392;-67
2023/07/03 08:15:45;;;;;;;8.20;1.70;;;24.00;89.20;;;;;;5072006;28;20027;-67
2023/07/03 08:18:11;;;;;;;5.93;1.30;;;24.00;89.90;;;;;;5070532;28;20500;-67
2023/07/03 08:20:37;;;;;;;7.88;1.75;;;23.90;90.20;;;;;;5071669;28;20036;-66
2023/07/03 08:23:03;;;;;;;9.57;1.77;;;24.20;90.20;;;;;;5072017;28;20024;-67
2023/07/03 08:25:28;;;;;;;15.15;2.10;;;24.40;89.80;;;;;;5072441;28;20086;-66
2023/07/03 08:27:54;;;;;;;7.28;1.50;;;24.60;90.10;;;;;;5071955;28;20473;-67
2023/07/03 08:30:22;;;;;;;7.57;1.88;;;25.10;89.70;;;;;;5072011;28;20491;-67
2023/07/03 08:32:47;;;;;;;11.75;1.73;;;25.50;88.00;;;;;;5071928;28;20032;-67
2023/07/03 08:35:13;;;;;;;8.38;1.77;;;25.70;87.50;;;;;;5071998;28;20106;-67
2023/07/03 08:37:39;;;;;;;9.38;1.65;;;26.00;87.40;;;;;;5071581;28;20031;-67
2023/07/03 08:40:07;;;;;;;10.98;1.90;;;26.80;86.00;;;;;;5072031;28;20028;-67
2023/07/03 08:42:46;;;;;;;8.05;1.88;;;27.40;85.60;;;;;;5071978;28;20033;-67
2023/07/03 08:45:15;;;;;;;7.78;2.03;;;27.60;85.00;;;;;;5071937;28;20434;-67
2023/07/03 08:47:41;;;;;;;10.70;1.88;;;27.90;85.30;;;;;;5071829;28;20457;-66
2023/07/03 08:50:08;;;;;;;10.05;1.88;;;28.50;83.50;;;;;;5071532;28;20505;-66
2023/07/03 08:52:41;;;;;;;6.70;1.58;;;28.70;82.90;;;;;;5073874;28;20033;-66
2023/07/03 08:55:11;;;;;;;8.93;2.10;;;28.20;82.60;;;;;;5074740;28;20371;-67
2023/07/03 08:57:38;;;;;;;5.22;1.63;;;27.60;83.40;;;;;;5074217;28;20029;-67
2023/07/03 09:00:11;;;;;;;6.53;1.85;;;27.10;84.40;;;;;;5068879;28;20033;-66
2023/07/03 09:02:43;;;;;;;10.05;2.28;;;26.70;84.30;;;;;;5061640;28;20052;-66
2023/07/03 09:05:20;;;;;;;10.70;1.65;;;26.30;85.50;;;;;;5067407;28;20028;-66
2023/07/03 09:07:49;;;;;;;9.10;1.75;;;25.70;86.50;;;;;;5073103;28;20482;-67
2023/07/03 09:10:27;;;;;;;7.57;1.90;;;24.90;88.00;;;;;;5063957;28;20032;-67
2023/07/03 09:13:06;;;;;;;11.75;1.83;;;24.20;89.60;;;;;;5065640;28;20666;-67
2023/07/03 09:15:39;;;;;;;8.35;2.20;;;23.60;90.40;;;;;;5074506;28;20502;-67
2023/07/03 09:18:12;;;;;;;9.65;2.08;;;23.60;90.70;;;;;;5071121;28;20040;-66
2023/07/03 09:20:39;;;;;;;9.13;2.00;;;24.20;90.10;;;;;;5073334;28;20103;-67
2023/07/03 09:23:14;;;;;;;8.93;1.95;;;24.40;89.80;;;;;;5074643;28;20024;-66
2023/07/03 09:26:04;;;;;;;11.05;2.30;;;24.90;89.60;;;;;;5073242;28;20036;-67
2023/07/03 09:28:34;;;;;;;14.77;2.42;;;25.80;88.50;;;;;;5064542;28;20043;-67
2023/07/03 09:30:59;;;;;;;10.38;1.95;;;26.80;85.90;;;;;;5071581;28;20028;-67
2023/07/03 09:33:25;;;;;;;8.55;2.10;;;26.30;86.60;;;;;;5072944;28;20456;-67
2023/07/03 09:35:50;;;;;;;8.73;1.98;;;25.60;88.00;;;;;;5070016;28;20029;-68
2023/07/03 09:38:24;;;;;;;7.32;1.50;;;25.30;89.20;;;;;;5073544;28;20066;-67
2023/07/03 09:40:53;;;;;;;12.63;2.53;;;25.00;88.40;;;;;;5074176;28;20017;-67
2023/07/03 09:43:27;;;;;;;9.45;2.00;;;24.90;89.10;;;;;;5074279;28;20031;-67
2023/07/03 09:46:13;;;;;;;12.55;2.03;;;24.70;89.80;;;;;;5074322;28;20488;-67
2023/07/03 09:48:39;;;;;;;12.45;2.50;;;25.20;89.20;;;;;;5074084;28;21353;-67
2023/07/03 09:51:21;;;;;;;13.10;2.35;;;25.40;89.60;;;;;;5069094;28;20036;-67
2023/07/03 09:53:47;;;;;;;10.75;2.10;;;25.10;89.10;;;;;;5071370;28;20024;-67
2023/07/03 09:56:16;;;;;;;6.25;2.00;;;24.80;89.90;;;;;;5067173;28;20082;-67
2023/07/03 09:58:47;;;;;;;7.63;1.85;;;25.10;89.10;;;;;;5054081;28;20028;-66
2023/07/03 10:01:27;;;;;;;12.27;2.20;;;25.20;88.10;;;;;;5054277;28;20021;-67
2023/07/03 10:04:16;;;;;;;11.52;2.00;;;25.60;87.70;;;;;;5053316;28;20037;-67
2023/07/03 10:07:00;;;;;;;13.48;2.10;;;25.40;88.80;;;;;;5054309;28;20116;-66
2023/07/03 10:09:30;;;;;;;9.45;2.20;;;25.60;88.20;;;;;;5054303;28;20031;-66
2023/07/03 10:12:02;;;;;;;11.45;2.08;;;25.60;88.40;;;;;;5054042;28;20070;-67
2023/07/03 10:14:38;;;;;;;11.48;2.40;;;25.80;88.20;;;;;;5062503;28;20028;-66
2023/07/03 10:17:12;;;;;;;13.48;2.45;;;26.10;88.40;;;;;;5071619;28;20025;-66
2023/07/03 10:19:40;;;;;;;8.63;1.80;;;26.50;87.70;;;;;;5073226;28;20110;-66
2023/07/03 10:22:06;;;;;;;8.55;1.73;;;26.70;86.20;;;;;;5073946;28;20056;-67
2023/07/03 10:24:35;;;;;;;8.15;1.55;;;26.60;85.50;;;;;;5073455;28;20017;-67
2023/07/03 10:27:02;;;;;;;6.60;1.75;;;26.80;85.80;;;;;;5073835;28;20472;-67
2023/07/03 10:29:37;;;;;;;8.20;1.70;;;27.00;84.80;;;;;;5073406;28;20469;-67
2023/07/03 10:32:15;;;;;;;8.60;1.83;;;27.20;83.80;;;;;;5072985;28;20039;-67
2023/07/03 10:34:57;;;;;;;11.85;1.85;;;27.20;83.20;;;;;;5071817;28;20439;-67
2023/07/03 10:37:23;;;;;;;5.28;1.60;;;27.70;82.30;;;;;;5073363;28;20078;-67
2023/07/03 10:39:53;;;;;;;9.65;1.98;;;27.70;83.60;;;;;;5073499;28;20028;-67
2023/07/03 10:42:25;;;;;;;8.13;1.85;;;28.10;83.20;;;;;;5073184;28;20478;-67
2023/07/03 10:44:59;;;;;;;9.35;1.50;;;28.80;81.70;;;;;;5072990;28;20484;-66
2023/07/03 10:47:47;;;;;;;5.90;1.77;;;29.00;80.70;;;;;;5073298;28;20033;-67
2023/07/03 10:50:14;;;;;;;8.25;1.90;;;29.50;79.70;;;;;;5073424;28;20032;-67
2023/07/03 10:52:57;;;;;;;7.20;2.00;;;29.20;79.10;;;;;;5072751;28;20025;-67
2023/07/03 10:55:26;;;;;;;9.30;1.98;;;29.10;80.00;;;;;;5072979;28;20032;-67
2023/07/03 10:57:57;;;;;;;9.73;1.52;;;28.70;80.30;;;;;;5073000;28;20054;-68
2023/07/03 11:00:55;;;;;;;4.40;1.20;;;28.20;79.40;;;;;;5071702;28;20038;-67
2023/07/03 11:03:56;;;;;;;6.80;1.50;;;27.70;79.50;;;;;;5044694;28;20068;-67
2023/07/03 11:06:53;;;;;;;8.25;2.10;;;27.20;80.80;;;;;;5064448;28;20187;-67
2023/07/03 11:09:42;;;;;;;7.47;1.50;;;26.60;82.80;;;;;;5072795;28;20085;-68
2023/07/03 11:12:23;;;;;;;7.47;1.70;;;26.80;83.50;;;;;;5073007;28;20025;-67
2023/07/03 11:15:07;;;;;;;11.75;2.05;;;26.80;84.40;;;;;;5072142;28;20446;-67
2023/07/03 11:17:49;;;;;;;11.38;1.95;;;27.00;84.10;;;;;;5072304;28;20024;-67
2023/07/03 11:20:20;;;;;;;8.15;1.67;;;27.30;84.80;;;;;;5072745;28;20039;-67
2023/07/03 11:22:57;;;;;;;9.00;1.70;;;28.30;82.30;;;;;;5072502;28;20111;-67
2023/07/03 11:25:36;;;;;;;8.80;2.13;;;28.00;81.20;;;;;;5071334;28;20425;-68
2023/07/03 11:28:32;;;;;;;8.88;1.73;;;27.30;82.60;;;;;;5072441;28;20021;-67
2023/07/03 11:31:01;;;;;;;10.10;1.80;;;26.70;83.50;;;;;;5072397;28;20033;-67
2023/07/03 11:33:29;;;;;;;9.18;1.98;;;26.10;85.10;;;;;;5072482;28;20031;-67
2023/07/03 11:35:56;;;;;;;8.77;2.00;;;25.60;86.40;;;;;;5071251;28;20078;-68
2023/07/03 11:38:22;;;;;;;10.82;2.13;;;25.10;87.40;;;;;;5071804;28;20150;-67
2023/07/03 11:40:53;;;;;;;11.70;2.60;;;24.30;88.80;;;;;;5072476;28;20043;-66
2023/07/03 11:43:28;;;;;;;13.48;2.28;;;23.60;90.60;;;;;;5072252;28;20039;-67
2023/07/03 11:45:56;;;;;;;10.30;1.80;;;22.90;93.00;;;;;;5072154;28;20542;-66
2023/07/03 11:48:35;;;;;;;14.85;2.42;;;22.40;94.20;;;;;;5072363;28;20020;-66
2023/07/03 11:51:13;;;;;;;10.00;2.10;;;21.70;94.00;;;;;;5072075;28;20029;-67
2023/07/03 11:53:50;;;;;;;10.80;2.10;;;21.30;94.20;;;;;;5072565;28;20036;-66
2023/07/03 11:56:31;;;;;;;9.65;2.05;;;20.80;95.00;;;;;;5072438;28;20041;-67
2023/07/03 11:59:22;;;;;;;15.80;2.22;;;20.30;95.70;;;;;;5072346;28;20105;-66
2023/07/03 12:01:53;;;;;;;10.83;1.90;;;20.10;96.00;;;;;;5071084;28;20028;-67
2023/07/03 12:04:44;;;;;;;15.68;2.33;;;20.10;96.50;;;;;;5072224;28;20162;-67
2023/07/03 12:07:30;;;;;;;10.57;2.40;;;20.30;96.10;;;;;;5072013;28;20455;-67
2023/07/03 12:10:17;;;;;;;9.75;1.80;;;20.50;95.80;;;;;;5071872;28;20025;-66
2023/07/03 12:12:44;;;;;;;12.15;2.38;;;20.60;95.30;;;;;;5072275;28;20457;-67
2023/07/03 12:15:13;;;;;;;10.52;1.90;;;20.50;95.80;;;;;;5072318;28;20120;-67
2023/07/03 12:17:38;;;;;;;11.02;2.30;;;20.30;96.00;;;;;;5072254;28;20059;-68
2023/07/03 12:20:09;;;;;;;10.68;1.98;;;20.20;96.10;;;;;;5072054;28;20032;-68
2023/07/03 12:22:43;;;;;;;13.77;1.92;;;20.00;96.50;;;;;;5072014;28;20052;-67
2023/07/03 12:25:10;;;;;;;10.98;2.08;;;19.90;96.80;;;;;;5072130;28;20105;-67
2023/07/03 12:27:38;;;;;;;10.15;2.03;;;19.70;96.90;;;;;;5073976;28;20043;-67
2023/07/03 12:30:05;;;;;;;13.30;1.90;;;19.60;97.00;;;;;;5074776;28;20032;-66
2023/07/03 12:32:34;;;;;;;10.55;2.05;;;19.40;97.30;;;;;;5075932;28;20052;-67
2023/07/03 12:35:18;;;;;;;9.73;2.20;;;19.40;97.70;;;;;;5075850;28;20025;-67
2023/07/03 12:37:49;;;;;;;8.52;2.17;;;19.50;97.60;;;;;;5075736;28;20101;-67
2023/07/03 12:40:17;;;;;;;10.63;2.28;;;20.20;96.90;;;;;;5075828;28;20041;-66
2023/07/03 12:42:47;;;;;;;13.68;2.22;;;20.90;95.70;;;;;;5075469;28;20040;-66
2023/07/03 12:45:23;;;;;;;11.32;2.13;;;21.40;94.90;;;;;;5075398;28;20040;-68
2023/07/03 12:48:04;;;;;;;9.45;2.33;;;21.50;94.10;;;;;;5075669;28;20051;-67
2023/07/03 12:50:31;;;;;;;11.20;2.03;;;21.90;93.60;;;;;;5075649;28;20036;-68